Time;durP1;ratioP1;P1;durP2;ratioP2;P2;SDS_P1;SDS_P2;PMS_P1;PMS_P2;Temp;Humidity;BMP_temperature;BMP_pressure;BME280_temperature;BME280_humidity;BME280_pressure;Samples;Min_cycle;Max_cycle;Signal;HPM_P1;HPM_P2
2021/12/13 00:01:28;;;;;;;1.43;1.33;;;10.70;99.90;11.00;102349.00;;;;5033972;28;20577;-83
2021/12/13 00:04:09;;;;;;;1.80;0.87;;;10.70;99.90;10.90;102355.00;;;;5018060;28;20182;-84
2021/12/13 00:06:52;;;;;;;0.60;0.60;;;10.70;99.90;10.80;102361.00;;;;5036102;28;20498;-84
2021/12/13 00:09:31;;;;;;;0.50;0.50;;;10.70;99.90;11.10;102357.00;;;;5034351;28;20179;-83
2021/12/13 00:12:03;;;;;;;1.27;1.17;;;10.80;99.90;10.60;102369.00;;;;5017961;28;20226;-82
2021/12/13 00:14:50;;;;;;;0.50;0.50;;;10.60;99.90;10.90;102360.00;;;;5018016;28;20183;-83
2021/12/13 00:17:31;;;;;;;1.03;1.03;;;10.70;99.90;11.00;102364.00;;;;5017503;28;20181;-84
2021/12/13 00:20:08;;;;;;;0.40;0.40;;;10.80;99.90;10.70;102354.00;;;;5034579;28;20226;-83
2021/12/13 00:22:51;;;;;;;0.40;0.40;;;10.70;99.90;11.10;102350.00;;;;5035456;28;20186;-83
2021/12/13 00:25:34;;;;;;;2.30;1.17;;;10.80;99.90;10.80;102339.00;;;;5017337;28;20173;-83
2021/12/13 00:28:15;;;;;;;2.40;2.20;;;10.80;99.90;10.70;102333.00;;;;5017895;28;20191;-83
2021/12/13 00:31:10;;;;;;;1.33;1.33;;;10.70;99.90;10.60;102336.00;;;;5016911;28;20212;-83
2021/12/13 00:34:18;;;;;;;1.13;1.13;;;10.70;99.90;10.70;102323.00;;;;5017211;28;20191;-83
2021/12/13 00:36:57;;;;;;;0.50;0.50;;;10.60;99.90;10.90;102334.00;;;;5034529;28;20181;-85
2021/12/13 00:39:39;;;;;;;0.40;0.40;;;10.70;99.90;11.00;102305.00;;;;5017561;28;20177;-83
2021/12/13 00:42:14;;;;;;;0.50;0.50;;;10.70;99.90;11.00;102364.00;;;;5033610;28;20620;-84
2021/12/13 00:44:51;;;;;;;0.50;0.50;;;10.80;99.90;10.60;102357.00;;;;5015882;28;20193;-84
2021/12/13 00:47:42;;;;;;;0.60;0.60;;;10.80;99.90;11.10;102357.00;;;;5031781;28;20170;-81
2021/12/13 00:50:59;;;;;;;0.67;0.67;;;10.80;99.90;10.90;102351.00;;;;5017326;28;20184;-81
2021/12/13 00:53:35;;;;;;;2.20;2.10;;;10.80;99.90;10.70;102355.00;;;;5034504;28;20186;-83
2021/12/13 00:56:58;;;;;;;0.83;0.83;;;10.70;99.90;10.80;102368.00;;;;5016016;28;20277;-82
2021/12/13 00:59:40;;;;;;;0.40;0.40;;;10.60;99.90;11.00;102375.00;;;;5034887;28;20201;-82
2021/12/13 01:02:50;;;;;;;2.53;2.43;;;10.70;99.90;11.10;102371.00;;;;5033036;28;20182;-82
2021/12/13 01:05:56;;;;;;;0.40;0.40;;;10.80;99.90;11.10;102373.00;;;;5004162;28;20197;-82
2021/12/13 01:09:18;;;;;;;1.47;1.27;;;10.90;99.90;10.80;102332.00;;;;5033403;28;20180;-82
2021/12/13 01:11:59;;;;;;;0.50;0.50;;;10.80;99.90;10.50;102360.00;;;;5034249;28;20199;-79
2021/12/13 01:14:42;;;;;;;0.30;0.30;;;10.60;99.90;10.70;102366.00;;;;5016024;28;20281;-80
2021/12/13 01:17:57;;;;;;;0.80;0.80;;;10.60;99.90;10.70;102366.00;;;;5034345;28;20171;-79
2021/12/13 01:20:55;;;;;;;1.07;1.07;;;10.70;99.90;10.60;102366.00;;;;5032412;28;20186;-78
2021/12/13 01:23:46;;;;;;;0.60;0.60;;;10.60;99.90;10.70;102377.00;;;;5032878;28;20228;-78
2021/12/13 01:26:38;;;;;;;0.43;0.43;;;10.60;99.90;10.90;102360.00;;;;5033357;28;20241;-78
2021/12/13 01:29:23;;;;;;;0.30;0.30;;;10.60;99.90;10.70;102381.00;;;;5032720;28;20179;-78
2021/12/13 01:32:06;;;;;;;2.73;1.30;;;10.70;99.90;10.50;102377.00;;;;5016330;28;20230;-78
2021/12/13 01:34:43;;;;;;;0.30;0.30;;;10.60;99.90;10.60;102390.00;;;;5032774;28;20175;-77
2021/12/13 01:37:17;;;;;;;0.30;0.30;;;10.60;99.90;10.70;102376.00;;;;5015655;28;20638;-78
2021/12/13 01:39:51;;;;;;;0.70;0.70;;;10.60;99.90;10.80;102389.00;;;;5016612;28;20225;-77
2021/12/13 01:42:29;;;;;;;0.53;0.53;;;10.60;99.90;10.80;102390.00;;;;5032264;28;20273;-77
2021/12/13 01:45:07;;;;;;;1.30;1.20;;;10.60;99.90;11.20;102378.00;;;;5033885;28;20533;-77
2021/12/13 01:47:46;;;;;;;0.70;0.70;;;10.80;99.90;10.90;102370.00;;;;5015817;28;20642;-77
2021/12/13 01:50:41;;;;;;;2.63;2.43;;;10.80;99.90;10.90;102377.00;;;;5015977;28;20182;-79
2021/12/13 01:53:18;;;;;;;4.60;2.83;;;10.90;99.90;10.80;102375.00;;;;5015978;28;20207;-79
2021/12/13 01:55:58;;;;;;;0.30;0.30;;;10.80;99.90;10.60;102397.00;;;;5031990;28;20184;-79
2021/12/13 02:01:18;;;;;;;0.30;0.30;;;10.60;99.90;10.60;102383.00;;;;5032336;28;20636;-79
2021/12/13 02:04:06;;;;;;;1.80;1.07;;;10.60;99.90;10.80;102389.00;;;;5031540;28;20201;-78
2021/12/13 02:06:48;;;;;;;1.07;1.07;;;10.70;99.90;10.90;102385.00;;;;5015072;28;20285;-79
2021/12/13 02:09:25;;;;;;;0.50;0.50;;;10.70;99.90;10.90;102386.00;;;;5015875;28;20174;-79
2021/12/13 02:12:06;;;;;;;0.30;0.30;;;10.60;99.90;11.00;102394.00;;;;5030441;28;20301;-79
2021/12/13 02:14:48;;;;;;;0.50;0.50;;;10.80;99.90;10.80;102388.00;;;;5032492;28;20182;-79
2021/12/13 02:17:23;;;;;;;0.30;0.30;;;10.80;99.90;10.60;102372.00;;;;5016295;28;20248;-79
2021/12/13 02:20:00;;;;;;;1.80;1.70;;;10.60;99.90;10.60;102386.00;;;;5015801;28;20196;-79
2021/12/13 02:23:01;;;;;;;0.33;0.33;;;10.60;99.90;10.70;102373.00;;;;5031275;28;20179;-79
2021/12/13 02:25:48;;;;;;;3.60;2.43;;;10.50;99.90;10.50;102353.00;;;;5025065;28;20209;-79
2021/12/13 02:28:29;;;;;;;0.93;0.93;;;10.60;99.90;10.60;102375.00;;;;5032363;28;20249;-78
2021/12/13 02:31:39;;;;;;;0.30;0.30;;;10.50;99.90;10.60;102382.00;;;;5015512;28;20188;-80
2021/12/13 02:34:17;;;;;;;0.30;0.30;;;10.50;99.90;10.90;102390.00;;;;5020414;28;20289;-79
2021/12/13 02:36:56;;;;;;;0.33;0.33;;;10.60;99.90;11.20;102345.00;;;;5031220;28;20209;-78
2021/12/13 02:39:33;;;;;;;1.23;1.23;;;10.80;99.90;10.60;102376.00;;;;5015914;28;20274;-78
2021/12/13 02:42:03;;;;;;;2.63;2.13;;;10.70;99.90;10.60;102395.00;;;;5031734;28;20202;-78
2021/12/13 02:44:43;;;;;;;1.07;1.00;;;10.60;99.90;11.50;102385.00;;;;5031959;28;20246;-79
2021/12/13 02:47:29;;;;;;;0.40;0.40;;;10.90;99.90;10.90;102392.00;;;;5015306;28;20204;-79
2021/12/13 02:50:10;;;;;;;0.33;0.33;;;10.80;99.90;10.90;102397.00;;;;5015178;28;20181;-79
2021/12/13 02:52:42;;;;;;;2.17;2.00;;;10.80;99.90;10.60;102392.00;;;;5015174;28;20202;-79
2021/12/13 02:55:24;;;;;;;1.63;1.53;;;10.60;99.90;10.40;102386.00;;;;5031911;28;20182;-80
2021/12/13 02:58:04;;;;;;;0.53;0.53;;;10.60;99.90;10.50;102388.00;;;;5031693;28;20181;-80
2021/12/13 03:00:58;;;;;;;2.00;0.80;;;10.50;99.90;10.50;102401.00;;;;5031383;28;20542;-81
2021/12/13 03:03:40;;;;;;;0.77;0.77;;;10.50;99.90;10.50;102377.00;;;;5001973;28;20192;-79
2021/12/13 03:06:18;;;;;;;0.50;0.50;;;10.50;99.90;10.60;102382.00;;;;5030296;28;20181;-79
2021/12/13 03:09:02;;;;;;;1.27;1.17;;;10.50;99.90;10.30;102375.00;;;;5014069;28;20187;-79
2021/12/13 03:11:36;;;;;;;1.03;1.03;;;10.50;99.90;10.60;102394.00;;;;5031582;28;20203;-79
2021/12/13 03:14:33;;;;;;;0.83;0.83;;;10.50;99.90;10.70;102393.00;;;;5030972;28;20274;-80
2021/12/13 03:17:20;;;;;;;2.67;2.53;;;10.60;99.90;10.90;102399.00;;;;5006154;28;20662;-80
2021/12/13 03:20:25;;;;;;;1.03;1.03;;;10.60;99.90;10.40;102412.00;;;;5034131;28;20215;-80
2021/12/13 03:23:18;;;;;;;2.90;2.37;;;10.50;99.90;10.50;102406.00;;;;5034285;28;20213;-80
2021/12/13 03:26:40;;;;;;;1.20;1.17;;;10.50;99.90;10.40;102402.00;;;;5035659;28;20175;-79
2021/12/13 03:29:34;;;;;;;1.07;1.03;;;10.50;99.90;10.40;102398.00;;;;5035388;28;20228;-79
2021/12/13 03:32:15;;;;;;;1.43;1.43;;;10.50;99.90;10.50;102394.00;;;;5035758;28;20206;-80
2021/12/13 03:35:18;;;;;;;0.90;0.90;;;10.40;99.90;10.70;102405.00;;;;5017751;28;20194;-80
2021/12/13 03:38:04;;;;;;;0.97;0.97;;;10.40;99.90;10.60;102415.00;;;;5034819;28;20588;-80
2021/12/13 03:40:40;;;;;;;1.67;1.27;;;10.50;99.90;10.30;102362.00;;;;5018564;28;20182;-78
2021/12/13 03:43:46;;;;;;;2.50;2.30;;;10.40;99.90;10.60;102415.00;;;;5034841;28;20632;-78
2021/12/13 03:46:24;;;;;;;0.40;0.40;;;10.50;99.90;10.50;102407.00;;;;5017520;28;20288;-78
2021/12/13 03:49:00;;;;;;;0.97;0.97;;;10.50;99.90;10.60;102407.00;;;;5018210;28;20196;-78
2021/12/13 03:51:34;;;;;;;0.30;0.30;;;10.50;99.90;10.40;102414.00;;;;5018264;28;20674;-81
2021/12/13 03:54:13;;;;;;;0.30;0.30;;;10.50;99.90;10.60;102400.00;;;;5017489;28;20199;-81
2021/12/13 03:56:49;;;;;;;1.23;1.23;;;10.50;99.90;10.30;102396.00;;;;5034724;28;20257;-81
2021/12/13 03:59:29;;;;;;;0.70;0.70;;;10.40;99.90;10.40;102399.00;;;;5034612;28;20758;-81
2021/12/13 04:02:14;;;;;;;0.60;0.60;;;10.30;99.90;10.30;102401.00;;;;5018480;28;20217;-79
2021/12/13 04:04:48;;;;;;;0.90;0.90;;;10.40;99.90;10.40;102361.00;;;;5033599;28;20242;-80
2021/12/13 04:07:31;;;;;;;0.97;0.97;;;10.40;99.90;10.50;102401.00;;;;5018196;28;20553;-79
2021/12/13 04:10:15;;;;;;;0.30;0.30;;;10.40;99.90;10.70;102398.00;;;;5034686;28;20205;-83
2021/12/13 04:12:57;;;;;;;0.60;0.60;;;10.50;99.90;10.90;102349.00;;;;5016382;28;20223;-81
2021/12/13 04:16:15;;;;;;;1.20;1.20;;;10.60;99.90;10.60;102396.00;;;;5016827;28;20342;-82
2021/12/13 04:19:12;;;;;;;1.80;1.70;;;10.60;99.90;11.00;102396.00;;;;5033193;28;20210;-81
2021/12/13 04:21:59;;;;;;;5.23;4.80;;;10.50;99.90;10.70;102364.00;;;;5033803;28;20315;-81
2021/12/13 04:24:48;;;;;;;2.10;1.07;;;10.60;99.90;10.50;102382.00;;;;5035449;28;20165;-79
2021/12/13 04:27:29;;;;;;;0.90;0.90;;;10.60;99.90;10.30;102393.00;;;;5034552;28;20179;-79
2021/12/13 04:30:29;;;;;;;2.10;1.50;;;10.40;99.90;10.30;102399.00;;;;5017447;28;20225;-79
2021/12/13 04:33:06;;;;;;;0.60;0.60;;;10.40;99.90;10.30;102391.00;;;;5016353;28;20211;-79
2021/12/13 04:35:42;;;;;;;1.13;1.13;;;10.30;99.90;10.30;102396.00;;;;5016653;28;20574;-79
2021/12/13 04:38:21;;;;;;;1.20;1.17;;;10.30;99.90;10.30;102396.00;;;;5017313;28;20231;-79
2021/12/13 04:41:02;;;;;;;2.97;2.73;;;10.30;99.90;10.30;102397.00;;;;5033829;28;20175;-79
2021/12/13 04:43:40;;;;;;;1.03;0.87;;;10.30;99.90;10.30;102383.00;;;;5033930;28;20201;-79
2021/12/13 04:46:15;;;;;;;0.30;0.30;;;10.30;99.90;10.20;102389.00;;;;5033806;28;20181;-79
2021/12/13 04:48:57;;;;;;;0.37;0.37;;;10.30;99.90;10.50;102362.00;;;;5033580;28;20178;-78
2021/12/13 04:51:59;;;;;;;0.40;0.40;;;10.30;99.90;10.20;102352.00;;;;5033673;28;20225;-77
2021/12/13 04:54:37;;;;;;;1.43;1.33;;;10.30;99.90;10.10;102399.00;;;;5032906;28;20184;-77
2021/12/13 04:57:12;;;;;;;0.37;0.37;;;10.20;99.90;10.70;102365.00;;;;5017522;28;20184;-78
2021/12/13 04:59:41;;;;;;;0.30;0.30;;;10.40;99.90;10.50;102400.00;;;;5033952;28;20178;-78
2021/12/13 05:02:15;;;;;;;0.40;0.40;;;10.40;99.90;10.40;102412.00;;;;5015943;28;20199;-78
2021/12/13 05:04:43;;;;;;;0.40;0.40;;;10.40;99.90;10.60;102412.00;;;;5015988;28;20181;-79
2021/12/13 05:07:14;;;;;;;0.50;0.50;;;10.40;99.90;10.50;102400.00;;;;5034308;28;20183;-80
2021/12/13 05:09:48;;;;;;;0.97;0.97;;;10.50;99.90;10.30;102404.00;;;;5034624;28;20698;-80
2021/12/13 05:12:19;;;;;;;3.57;2.53;;;10.40;99.90;10.20;102415.00;;;;5016081;28;20315;-79
2021/12/13 05:15:15;;;;;;;0.60;0.60;;;10.40;99.90;10.40;102404.00;;;;5017342;28;20194;-79
2021/12/13 05:17:47;;;;;;;1.00;1.00;;;10.40;99.90;10.20;102410.00;;;;5014163;28;20285;-79
2021/12/13 05:20:32;;;;;;;2.23;0.87;;;10.40;99.90;10.40;102411.00;;;;5016486;28;20569;-79
2021/12/13 05:23:09;;;;;;;0.53;0.53;;;10.30;99.90;10.30;102371.00;;;;5032343;28;20238;-78
2021/12/13 05:25:54;;;;;;;0.97;0.53;;;10.30;99.90;10.60;102408.00;;;;5033054;28;20283;-78
2021/12/13 05:28:51;;;;;;;0.50;0.50;;;10.40;99.90;10.60;102411.00;;;;5016691;28;20190;-79
2021/12/13 05:31:31;;;;;;;1.43;1.33;;;10.40;99.90;10.40;102399.00;;;;5016347;28;20643;-78
2021/12/13 05:34:29;;;;;;;7.30;6.93;;;10.40;99.90;10.60;102412.00;;;;5015731;28;20211;-78
2021/12/13 05:36:58;;;;;;;1.43;1.33;;;10.50;99.90;10.50;102395.00;;;;5034009;28;20659;-78
2021/12/13 05:39:33;;;;;;;2.10;0.97;;;10.40;99.90;10.30;102403.00;;;;5016382;28;20179;-78
2021/12/13 05:42:20;;;;;;;4.17;3.67;;;10.40;99.90;10.30;102395.00;;;;5033428;28;20163;-78
2021/12/13 05:44:50;;;;;;;0.70;0.70;;;10.30;99.90;10.40;102372.00;;;;5015556;28;20206;-78
2021/12/13 05:47:28;;;;;;;0.30;0.30;;;10.40;99.90;10.60;102395.00;;;;5031734;28;20171;-78
2021/12/13 05:50:09;;;;;;;0.30;0.30;;;10.30;99.90;10.50;102399.00;;;;5032713;28;20635;-79
2021/12/13 05:52:41;;;;;;;1.53;1.10;;;10.40;99.90;10.40;102392.00;;;;5032703;28;20259;-79
2021/12/13 05:55:15;;;;;;;0.30;0.30;;;10.40;99.90;10.60;102351.00;;;;5015447;28;20181;-79
2021/12/13 05:57:51;;;;;;;0.33;0.33;;;10.40;99.90;10.30;102383.00;;;;5015369;28;20225;-79
2021/12/13 06:00:36;;;;;;;2.67;2.47;;;10.40;99.90;10.30;102399.00;;;;5015713;28;20290;-79
2021/12/13 06:03:18;;;;;;;1.23;1.23;;;10.30;99.90;10.30;102404.00;;;;5032447;28;20181;-79
2021/12/13 06:05:59;;;;;;;0.33;0.33;;;10.30;99.90;10.60;102357.00;;;;5031817;28;20206;-79
2021/12/13 06:08:39;;;;;;;0.20;0.20;;;10.30;99.90;10.50;102402.00;;;;5032575;28;20193;-79
2021/12/13 06:11:32;;;;;;;0.30;0.30;;;10.40;99.90;10.40;102411.00;;;;5015257;28;20205;-78
2021/12/13 06:14:20;;;;;;;0.47;0.47;;;10.30;99.90;10.50;102383.00;;;;5031238;28;20191;-85
2021/12/13 06:17:07;;;;;;;1.37;1.27;;;10.40;99.90;10.40;102408.00;;;;5032250;28;20197;-84
2021/12/13 06:19:57;;;;;;;0.67;0.67;;;10.40;99.90;10.60;102396.00;;;;5032316;28;20196;-80
2021/12/13 06:22:34;;;;;;;0.50;0.40;;;10.40;99.90;10.30;102395.00;;;;5032097;28;20171;-82
2021/12/13 06:25:23;;;;;;;0.30;0.30;;;10.30;99.90;10.20;102409.00;;;;5032006;28;20198;-81
2021/12/13 06:28:00;;;;;;;0.30;0.30;;;10.30;99.90;10.30;102406.00;;;;5015600;28;20191;-81
2021/12/13 06:30:40;;;;;;;0.37;0.37;;;10.30;99.90;10.30;102431.00;;;;5032048;28;20182;-81
2021/12/13 06:33:18;;;;;;;0.30;0.30;;;10.30;99.90;10.20;102419.00;;;;5031329;28;20220;-82
2021/12/13 06:36:00;;;;;;;1.47;1.37;;;10.30;99.90;10.10;102432.00;;;;5015936;28;20552;-81
2021/12/13 06:38:50;;;;;;;1.60;1.57;;;10.20;99.90;10.20;102423.00;;;;5032107;28;20172;-80
2021/12/13 06:41:38;;;;;;;0.30;0.30;;;10.20;99.90;10.10;102407.00;;;;5015658;28;20182;-80
2021/12/13 06:44:29;;;;;;;0.30;0.30;;;10.20;99.90;10.20;102410.00;;;;5015253;28;20718;-79
2021/12/13 06:47:22;;;;;;;0.93;0.70;;;10.20;99.90;10.10;102414.00;;;;5031267;28;20179;-79
2021/12/13 06:49:58;;;;;;;0.70;0.70;;;10.20;99.90;10.60;102428.00;;;;5015773;28;20185;-80
2021/12/13 06:52:36;;;;;;;2.00;1.90;;;10.30;99.90;10.50;102416.00;;;;5015356;28;20216;-81
2021/12/13 06:55:13;;;;;;;1.40;1.10;;;10.30;99.90;10.20;102428.00;;;;5019919;28;20189;-81
2021/12/13 06:58:13;;;;;;;0.50;0.50;;;10.30;99.90;10.60;102435.00;;;;5035324;28;20561;-79
2021/12/13 07:00:59;;;;;;;2.57;2.43;;;10.40;99.90;10.10;102422.00;;;;5018993;28;20245;-79
2021/12/13 07:03:34;;;;;;;1.27;1.17;;;10.30;99.90;10.00;102429.00;;;;5036054;28;20697;-80
2021/12/13 07:06:18;;;;;;;1.33;1.23;;;10.10;99.90;9.90;102431.00;;;;5035076;28;20171;-80
2021/12/13 07:09:12;;;;;;;0.70;0.70;;;10.10;99.90;9.90;102430.00;;;;5035744;28;20647;-79
2021/12/13 07:11:46;;;;;;;1.87;1.77;;;10.10;99.90;10.10;102388.00;;;;5018840;28;20209;-81
2021/12/13 07:14:37;;;;;;;0.70;0.70;;;10.10;99.90;10.10;102424.00;;;;5036716;28;20190;-82
2021/12/13 07:17:18;;;;;;;0.97;0.87;;;10.10;99.90;10.00;102430.00;;;;5034996;28;20179;-83
2021/12/13 07:19:48;;;;;;;2.10;2.00;;;10.10;99.90;10.20;102428.00;;;;5035379;28;20623;-78
2021/12/13 07:22:29;;;;;;;0.43;0.43;;;10.10;99.90;10.20;102392.00;;;;5018016;28;20185;-78
2021/12/13 07:25:15;;;;;;;0.83;0.83;;;10.20;99.90;10.20;102448.00;;;;5018564;28;20673;-78
2021/12/13 07:27:52;;;;;;;1.30;1.20;;;10.20;99.90;10.30;102443.00;;;;5034997;28;20184;-78
2021/12/13 07:30:36;;;;;;;1.63;1.53;;;10.20;99.90;10.10;102433.00;;;;5036530;28;20648;-78
2021/12/13 07:33:12;;;;;;;3.50;1.83;;;10.20;99.90;10.20;102425.00;;;;5034871;28;20240;-81
2021/12/13 07:35:49;;;;;;;2.23;2.13;;;10.20;99.90;10.10;102404.00;;;;5034880;28;20174;-80
2021/12/13 07:38:33;;;;;;;1.87;1.67;;;10.20;99.90;10.10;102443.00;;;;5034551;28;20189;-79
2021/12/13 07:41:13;;;;;;;1.47;1.37;;;10.20;99.90;10.10;102366.00;;;;5018998;28;20207;-79
2021/12/13 07:43:49;;;;;;;0.50;0.50;;;10.10;99.90;10.10;102430.00;;;;5033997;28;20183;-80
2021/12/13 07:46:30;;;;;;;0.70;0.70;;;10.10;99.90;10.30;102452.00;;;;5018910;28;20233;-80
2021/12/13 07:49:10;;;;;;;0.30;0.30;;;10.10;99.90;10.30;102457.00;;;;5034888;28;20237;-82
2021/12/13 07:51:55;;;;;;;1.40;0.60;;;10.20;99.90;10.20;102425.00;;;;5017669;28;20207;-82
2021/12/13 07:54:30;;;;;;;0.30;0.30;;;10.20;99.90;10.20;102462.00;;;;5034434;28;20196;-82
2021/12/13 07:57:05;;;;;;;1.27;0.60;;;10.20;99.90;10.10;102449.00;;;;5034584;28;20186;-82
2021/12/13 07:59:38;;;;;;;1.30;1.23;;;10.10;99.90;10.00;102467.00;;;;5034326;28;20233;-82
2021/12/13 08:02:25;;;;;;;3.30;1.23;;;10.10;99.90;10.10;102436.00;;;;5035933;28;20178;-82
2021/12/13 08:05:11;;;;;;;2.33;2.20;;;10.10;99.90;10.10;102464.00;;;;5017642;28;20639;-82
2021/12/13 08:08:03;;;;;;;1.03;0.93;;;10.10;99.90;10.20;102472.00;;;;5018039;28;20224;-88
2021/12/13 08:10:41;;;;;;;0.40;0.40;;;10.20;99.90;10.10;102477.00;;;;5034246;28;20190;-83
2021/12/13 08:13:20;;;;;;;0.30;0.30;;;10.20;99.90;10.10;102464.00;;;;5034235;28;20282;-79
2021/12/13 08:16:04;;;;;;;0.30;0.30;;;10.20;99.90;10.30;102459.00;;;;5018090;28;20646;-79
2021/12/13 08:18:50;;;;;;;4.07;2.13;;;10.20;99.90;10.20;102441.00;;;;5034305;28;20187;-78
2021/12/13 08:21:30;;;;;;;0.70;0.70;;;10.20;99.90;10.30;102471.00;;;;5005936;28;20191;-79
2021/12/13 08:24:05;;;;;;;0.67;0.67;;;10.20;99.90;10.20;102428.00;;;;5017172;28;20296;-79
2021/12/13 08:27:08;;;;;;;0.30;0.30;;;10.20;99.90;10.30;102465.00;;;;5034480;28;20168;-78
2021/12/13 08:29:46;;;;;;;0.53;0.53;;;10.20;99.90;10.20;102465.00;;;;5018039;28;20689;-79
2021/12/13 08:32:29;;;;;;;1.20;0.97;;;10.20;99.90;10.30;102466.00;;;;5030565;28;20207;-79
2021/12/13 08:35:05;;;;;;;0.30;0.30;;;10.20;99.90;10.20;102431.00;;;;5015402;28;20650;-78
2021/12/13 08:37:46;;;;;;;0.30;0.30;;;10.20;99.90;10.30;102475.00;;;;5022347;28;20247;-67
2021/12/13 08:40:31;;;;;;;0.30;0.30;;;10.20;99.90;10.50;102477.00;;;;5028906;28;20195;-85
2021/12/13 08:43:09;;;;;;;0.50;0.50;;;10.30;99.90;10.30;102465.00;;;;5002082;28;20296;-85
2021/12/13 08:45:45;;;;;;;0.87;0.87;;;10.30;99.90;10.40;102466.00;;;;5022604;28;20270;-85
2021/12/13 08:48:26;;;;;;;0.50;0.50;;;10.30;99.90;10.20;102467.00;;;;5023388;28;20188;-85
2021/12/13 08:51:06;;;;;;;1.70;1.60;;;10.20;99.90;10.20;102480.00;;;;5033648;28;20191;-86
2021/12/13 08:53:36;;;;;;;0.40;0.40;;;10.20;99.90;10.40;102481.00;;;;5032937;28;20229;-85
2021/12/13 08:56:23;;;;;;;0.40;0.40;;;10.30;99.90;10.20;102464.00;;;;5033114;28;20186;-85
2021/12/13 08:59:12;;;;;;;0.40;0.40;;;10.20;99.90;10.20;102481.00;;;;5033480;28;20635;-85
2021/12/13 09:01:55;;;;;;;0.30;0.30;;;10.20;99.90;10.30;102480.00;;;;5033797;28;20259;-85
2021/12/13 09:04:40;;;;;;;0.50;0.50;;;10.20;99.90;10.30;102485.00;;;;5032547;28;20187;-85
2021/12/13 09:07:13;;;;;;;0.40;0.40;;;10.30;99.90;10.60;102471.00;;;;5033246;28;20179;-85
2021/12/13 09:09:45;;;;;;;0.30;0.30;;;10.40;99.90;10.50;102487.00;;;;5032914;28;20626;-85
2021/12/13 09:12:15;;;;;;;0.73;0.73;;;10.40;99.90;10.40;102504.00;;;;5016731;28;20205;-86
2021/12/13 09:14:53;;;;;;;0.67;0.67;;;10.40;99.90;10.30;102478.00;;;;5033099;28;20221;-85
2021/12/13 09:17:41;;;;;;;1.03;1.03;;;10.30;99.90;10.20;102502.00;;;;5032574;28;20175;-84
2021/12/13 09:20:41;;;;;;;0.60;0.60;;;10.30;99.90;10.60;102483.00;;;;5016879;28;20234;-73
2021/12/13 09:23:25;;;;;;;0.80;0.80;;;10.40;99.90;10.20;102506.00;;;;5016021;28;20182;-73
2021/12/13 09:26:10;;;;;;;2.50;0.50;;;10.30;99.90;10.10;102476.00;;;;5031493;28;20580;-68
2021/12/13 09:28:54;;;;;;;1.80;0.90;;;10.30;99.90;10.20;102516.00;;;;5034371;28;20187;-81
2021/12/13 09:31:26;;;;;;;1.73;1.60;;;10.20;99.90;10.50;102500.00;;;;5032689;28;20192;-81
2021/12/13 09:34:09;;;;;;;0.50;0.50;;;10.30;99.90;10.70;102508.00;;;;5032704;28;20183;-71
2021/12/13 09:36:50;;;;;;;3.03;2.13;;;10.50;99.90;10.40;102514.00;;;;5032306;28;20192;-73
2021/12/13 09:39:33;;;;;;;0.90;0.90;;;10.40;99.90;10.40;102512.00;;;;5033145;28;20195;-79
2021/12/13 09:42:22;;;;;;;0.70;0.70;;;10.40;99.90;10.20;102482.00;;;;5026016;28;20198;-76
2021/12/13 09:45:01;;;;;;;0.63;0.63;;;10.30;99.90;10.30;102522.00;;;;5031576;28;20185;-76
2021/12/13 09:47:40;;;;;;;0.80;0.80;;;10.30;99.90;10.30;102529.00;;;;5033923;28;20185;-76
2021/12/13 09:50:22;;;;;;;0.50;0.50;;;10.30;99.90;10.30;102533.00;;;;5031757;28;20647;-76
2021/12/13 09:53:12;;;;;;;0.63;0.63;;;10.40;99.90;10.50;102541.00;;;;5015500;28;20694;-76
2021/12/13 09:55:49;;;;;;;3.50;3.40;;;10.50;99.90;10.40;102485.00;;;;5033732;28;20183;-75
2021/12/13 09:58:53;;;;;;;0.40;0.40;;;10.50;99.90;10.40;102519.00;;;;5031970;28;20551;-75
2021/12/13 10:01:31;;;;;;;0.30;0.30;;;10.40;99.90;10.50;102519.00;;;;5032695;28;20274;-75
2021/12/13 10:04:19;;;;;;;1.23;0.97;;;10.40;99.90;10.70;102534.00;;;;5032612;28;20533;-75
2021/12/13 10:07:11;;;;;;;2.50;1.70;;;10.60;99.90;10.60;102538.00;;;;5032155;28;20225;-75
2021/12/13 10:09:54;;;;;;;0.30;0.30;;;10.60;99.90;10.60;102503.00;;;;5032180;28;20190;-76
2021/12/13 10:12:47;;;;;;;3.60;3.50;;;10.60;99.90;10.60;102530.00;;;;5031521;28;20289;-75
2021/12/13 10:15:37;;;;;;;0.30;0.30;;;10.60;99.90;10.50;102544.00;;;;5032957;28;20195;-75
2021/12/13 10:18:21;;;;;;;0.50;0.50;;;10.60;99.90;10.60;102533.00;;;;5031259;28;20265;-75
2021/12/13 10:33:35;;;;;;;0.73;0.73;;;10.10;99.90;10.10;102552.00;;;;5093200;27;1312237;-74
2021/12/13 10:36:11;;;;;;;1.17;1.17;;;10.20;99.90;10.40;102538.00;;;;5130089;28;20613;-74
2021/12/13 10:38:52;;;;;;;0.30;0.30;;;10.30;99.90;10.60;102551.00;;;;5130133;28;20186;-74
2021/12/13 10:41:44;;;;;;;1.10;1.10;;;10.50;99.90;10.80;102543.00;;;;5113213;28;20278;-74
2021/12/13 10:44:27;;;;;;;1.60;1.50;;;10.60;99.90;10.80;102545.00;;;;5101858;28;20188;-74
2021/12/13 10:47:07;;;;;;;0.40;0.40;;;10.70;99.90;10.40;102505.00;;;;5109617;28;20197;-74
2021/12/13 10:49:44;;;;;;;1.97;1.93;;;10.50;99.90;10.50;102531.00;;;;5108938;28;20180;-74
2021/12/13 10:52:30;;;;;;;0.40;0.40;;;10.50;99.90;10.50;102520.00;;;;5109456;28;20211;-75
2021/12/13 10:55:18;;;;;;;0.30;0.30;;;10.60;99.90;10.60;102547.00;;;;5114225;28;20547;-74
2021/12/13 10:57:48;;;;;;;2.97;0.97;;;10.60;99.90;10.60;102492.00;;;;5116193;28;20217;-74
2021/12/13 11:00:39;;;;;;;0.33;0.33;;;10.60;99.90;10.70;102539.00;;;;5120984;28;20229;-75
2021/12/13 11:03:22;;;;;;;0.30;0.30;;;10.60;99.90;10.50;102486.00;;;;5128858;28;20180;-73
2021/12/13 11:05:56;;;;;;;1.40;1.33;;;10.60;99.90;10.50;102520.00;;;;5120618;27;20197;-74
2021/12/13 11:08:29;;;;;;;0.30;0.30;;;10.60;99.90;10.80;102517.00;;;;5100053;28;20195;-74
2021/12/13 11:11:09;;;;;;;1.83;1.37;;;10.60;99.90;10.50;102524.00;;;;5116624;28;20231;-75
2021/12/13 11:13:45;;;;;;;1.80;1.70;;;10.60;99.90;10.60;102514.00;;;;5115105;28;20187;-86
2021/12/13 11:16:29;;;;;;;1.43;1.33;;;10.60;99.90;10.50;102525.00;;;;5114524;28;20184;-85
2021/12/13 11:19:12;;;;;;;0.40;0.40;;;10.60;99.90;10.60;102517.00;;;;5134342;27;20180;-85
2021/12/13 11:21:47;;;;;;;0.30;0.30;;;10.60;99.90;10.70;102525.00;;;;5119355;28;20182;-86
2021/12/13 11:24:23;;;;;;;0.50;0.50;;;10.60;99.90;10.30;102515.00;;;;5121086;27;20675;-86
2021/12/13 11:27:04;;;;;;;0.30;0.30;;;10.50;99.90;10.50;102478.00;;;;5117843;28;20221;-86
2021/12/13 11:29:37;;;;;;;0.40;0.40;;;10.50;99.90;10.50;102515.00;;;;5109365;28;20678;-85
2021/12/13 11:32:37;;;;;;;0.30;0.30;;;10.60;99.90;11.20;102489.00;;;;5117156;28;20215;-83
2021/12/13 11:35:14;;;;;;;0.30;0.30;;;10.80;99.90;10.90;102518.00;;;;5089811;28;20208;-84
2021/12/13 11:38:26;;;;;;;0.60;0.60;;;10.80;99.90;10.70;102499.00;;;;5118612;28;20188;-84
2021/12/13 11:41:37;;;;;;;0.33;0.33;;;10.80;99.90;11.20;102510.00;;;;5118463;28;20198;-84
2021/12/13 11:44:35;;;;;;;2.00;1.90;;;10.90;99.90;10.90;102491.00;;;;5106733;28;20181;-85
2021/12/13 11:47:30;;;;;;;0.53;0.53;;;11.00;99.90;10.80;102520.00;;;;5086332;28;20261;-85
2021/12/13 11:50:32;;;;;;;0.77;0.77;;;10.80;99.90;10.80;102515.00;;;;5104156;28;20188;-85
2021/12/13 11:53:43;;;;;;;0.40;0.40;;;10.80;99.90;10.70;102464.00;;;;5111360;28;20706;-85
2021/12/13 11:56:47;;;;;;;0.70;0.60;;;10.70;99.90;10.50;102516.00;;;;5104370;28;20277;-85
2021/12/13 12:00:11;;;;;;;0.30;0.30;;;10.60;99.90;10.60;102520.00;;;;5103340;28;20192;-84
2021/12/13 12:03:33;;;;;;;0.30;0.30;;;10.70;99.90;10.60;102520.00;;;;5013403;28;20207;-85
2021/12/13 12:06:08;;;;;;;2.00;1.90;;;10.60;99.90;10.70;102475.00;;;;5022801;28;20198;-85
2021/12/13 12:09:43;;;;;;;1.20;0.90;;;10.70;99.90;10.80;102496.00;;;;5104843;28;20194;-85
2021/12/13 12:12:42;;;;;;;0.40;0.40;;;10.80;99.90;10.90;102512.00;;;;5041950;28;20226;-85
2021/12/13 12:15:09;;;;;;;1.57;1.33;;;10.80;99.90;10.60;102504.00;;;;5037774;28;20213;-84
2021/12/13 12:17:38;;;;;;;1.93;1.90;;;10.80;99.90;10.50;102497.00;;;;5084460;28;20199;-85